Time;durP1;ratioP1;P1;durP2;ratioP2;P2;SDS_P1;SDS_P2;PMS_P1;PMS_P2;Temp;Humidity;BMP_temperature;BMP_pressure;BME280_temperature;BME280_humidity;BME280_pressure;Samples;Min_cycle;Max_cycle;Signal;HPM_P1;HPM_P2
2022/03/07 00:00:39;;;;;;;103.50;94.22;;;;;;;-0.26;100.00;101338.25;4995048;28;20105;-82
2022/03/07 00:03:06;;;;;;;118.72;108.32;;;;;;;-0.19;100.00;101335.16;4995203;28;20120;-80
2022/03/07 00:05:33;;;;;;;108.07;99.53;;;;;;;-0.25;100.00;101328.63;4994692;28;20054;-81
2022/03/07 00:08:00;;;;;;;107.38;98.63;;;;;;;-0.29;100.00;101319.38;4994583;28;20090;-83
2022/03/07 00:10:27;;;;;;;115.20;105.40;;;;;;;-0.26;100.00;101314.75;4994501;28;20113;-82
2022/03/07 00:12:55;;;;;;;117.57;107.40;;;;;;;-0.24;100.00;101314.66;4994969;28;20050;-82
2022/03/07 00:15:22;;;;;;;116.38;106.40;;;;;;;-0.28;100.00;101316.63;4994253;28;20108;-83
2022/03/07 00:17:49;;;;;;;93.57;86.05;;;;;;;-0.29;100.00;101319.38;4994409;28;20113;-79
2022/03/07 00:20:16;;;;;;;88.60;81.78;;;;;;;-0.38;100.00;101310.50;4994294;28;20053;-79
2022/03/07 00:22:43;;;;;;;94.03;86.18;;;;;;;-0.30;100.00;101309.91;4994055;28;20141;-81
2022/03/07 00:25:10;;;;;;;106.35;98.10;;;;;;;-0.18;100.00;101302.88;4994105;28;20046;-79
2022/03/07 00:27:37;;;;;;;101.97;93.70;;;;;;;-0.35;100.00;101297.19;4994023;28;20459;-79
2022/03/07 00:30:07;;;;;;;93.18;85.88;;;;;;;-0.32;100.00;101298.75;4993978;28;20054;-81
2022/03/07 00:32:34;;;;;;;124.65;114.78;;;;;;;-0.44;100.00;101291.88;4994279;28;20121;-78
2022/03/07 00:35:01;;;;;;;99.82;91.68;;;;;;;-0.41;100.00;101291.63;4992114;28;20129;-82
2022/03/07 00:37:28;;;;;;;88.15;81.13;;;;;;;-0.40;100.00;101291.50;4993973;28;20057;-83
2022/03/07 00:39:55;;;;;;;134.60;122.32;;;;;;;-0.35;100.00;101294.59;4993591;28;20046;-82
2022/03/07 00:42:22;;;;;;;116.15;106.38;;;;;;;-0.32;100.00;101286.53;4994145;28;20114;-78
2022/03/07 00:44:49;;;;;;;96.30;88.78;;;;;;;-0.39;100.00;101271.44;4993937;28;20058;-79
2022/03/07 00:47:17;;;;;;;108.65;99.70;;;;;;;-0.39;100.00;101266.22;4994820;28;20458;-79
2022/03/07 00:49:44;;;;;;;115.80;106.25;;;;;;;-0.32;100.00;101267.41;4994177;28;20471;-83
2022/03/07 00:52:10;;;;;;;107.20;98.72;;;;;;;-0.41;100.00;101270.75;4994464;28;20046;-79
2022/03/07 00:54:37;;;;;;;106.85;97.97;;;;;;;-0.43;100.00;101267.44;4994341;28;20112;-81
2022/03/07 00:57:05;;;;;;;106.68;97.63;;;;;;;-0.49;100.00;101259.13;4993659;28;20054;-83
2022/03/07 00:59:34;;;;;;;105.93;97.35;;;;;;;-0.51;100.00;101265.44;4994610;28;20428;-79
2022/03/07 01:02:01;;;;;;;101.03;92.72;;;;;;;-0.52;100.00;101261.16;4993968;28;20050;-81
2022/03/07 01:04:30;;;;;;;96.35;88.65;;;;;;;-0.48;100.00;101247.75;4994128;28;20510;-79
2022/03/07 01:06:57;;;;;;;99.18;91.43;;;;;;;-0.54;100.00;101243.03;4993995;28;20190;-78
2022/03/07 01:09:24;;;;;;;116.90;107.22;;;;;;;-0.52;100.00;101258.53;4993688;28;20553;-79
2022/03/07 01:11:50;;;;;;;86.53;79.45;;;;;;;-0.64;100.00;101252.50;4993564;28;20070;-81
2022/03/07 01:14:17;;;;;;;103.35;94.78;;;;;;;-0.57;100.00;101260.69;4993951;28;20046;-80
2022/03/07 01:16:44;;;;;;;95.18;87.50;;;;;;;-0.63;100.00;101256.78;4993436;28;20479;-82
2022/03/07 01:19:11;;;;;;;95.28;87.13;;;;;;;-0.65;100.00;101250.03;4993776;28;20130;-79
2022/03/07 01:21:40;;;;;;;85.28;77.28;;;;;;;-0.56;100.00;101251.91;4993717;28;20055;-80
2022/03/07 01:24:07;;;;;;;88.68;80.25;;;;;;;-0.64;100.00;101241.25;4993614;28;20046;-79
2022/03/07 01:26:35;;;;;;;116.90;106.82;;;;;;;-0.73;100.00;101243.63;4993817;28;20061;-80
2022/03/07 01:29:02;;;;;;;102.32;93.43;;;;;;;-0.78;100.00;101243.16;4994403;28;20069;-81
2022/03/07 01:31:28;;;;;;;99.85;90.88;;;;;;;-0.87;100.00;101240.44;4993967;28;20066;-79
2022/03/07 01:33:55;;;;;;;109.55;99.10;;;;;;;-0.63;100.00;101242.91;4993392;28;20054;-79
2022/03/07 01:36:22;;;;;;;126.53;115.07;;;;;;;-0.85;100.00;101244.56;4993717;28;20489;-80
2022/03/07 01:38:51;;;;;;;115.25;105.05;;;;;;;-0.70;100.00;101250.38;4993589;28;20082;-82
2022/03/07 01:41:18;;;;;;;93.72;85.10;;;;;;;-0.72;100.00;101247.06;4994986;28;20491;-79
2022/03/07 01:43:45;;;;;;;102.30;93.05;;;;;;;-0.82;100.00;101241.72;4997481;28;20050;-78
2022/03/07 01:46:11;;;;;;;105.13;95.72;;;;;;;-0.76;100.00;101249.06;4997008;28;20050;-81
2022/03/07 01:48:39;;;;;;;107.40;98.10;;;;;;;-0.74;100.00;101256.78;4997343;28;20466;-83
2022/03/07 01:51:10;;;;;;;99.10;89.82;;;;;;;-0.82;100.00;101252.16;4997106;28;20050;-83
2022/03/07 01:53:38;;;;;;;110.75;100.30;;;;;;;-0.86;100.00;101252.53;4996850;28;20082;-81
2022/03/07 01:56:07;;;;;;;117.65;107.72;;;;;;;-0.86;100.00;101252.53;4996852;28;20042;-83
2022/03/07 01:58:34;;;;;;;93.53;85.38;;;;;;;-0.88;100.00;101249.19;4997494;28;20557;-80
2022/03/07 02:01:02;;;;;;;106.68;97.00;;;;;;;-0.95;100.00;101244.44;4996805;28;20054;-80
2022/03/07 02:03:28;;;;;;;116.60;105.80;;;;;;;-0.92;100.00;101246.81;4997185;28;20145;-82
2022/03/07 02:05:55;;;;;;;107.75;98.45;;;;;;;-0.94;100.00;101245.28;4996912;28;20047;-81
2022/03/07 02:08:22;;;;;;;94.50;86.13;;;;;;;-1.02;100.00;101256.31;4996357;28;20050;-81
2022/03/07 02:10:49;;;;;;;117.00;105.28;;;;;;;-0.99;100.00;101255.25;4996911;28;20050;-79
2022/03/07 02:13:19;;;;;;;95.68;87.85;;;;;;;-1.06;100.00;101257.50;4997315;28;20466;-84
2022/03/07 02:15:54;;;;;;;111.80;102.20;;;;;;;-0.94;100.00;101266.13;4996400;28;20133;-80
2022/03/07 02:18:22;;;;;;;93.25;85.60;;;;;;;-1.04;100.00;101276.44;4997351;28;20046;-81
2022/03/07 02:20:55;;;;;;;103.28;94.80;;;;;;;-0.97;100.00;101279.41;4996309;28;20523;-81
2022/03/07 02:23:27;;;;;;;114.72;104.45;;;;;;;-1.07;100.00;101276.69;4996223;28;20112;-80
2022/03/07 02:25:53;;;;;;;102.47;93.25;;;;;;;-1.00;100.00;101277.03;4991326;28;20049;-81
2022/03/07 02:28:21;;;;;;;90.68;83.07;;;;;;;-1.08;100.00;101292.47;4996462;28;20057;-80
2022/03/07 02:30:47;;;;;;;105.07;96.30;;;;;;;-1.02;100.00;101290.22;4987866;28;20136;-79
2022/03/07 02:33:14;;;;;;;100.30;91.88;;;;;;;-1.12;100.00;101284.03;4996400;28;20043;-80
2022/03/07 02:35:41;;;;;;;108.97;99.68;;;;;;;-1.01;100.00;101288.44;4996018;28;20116;-83
2022/03/07 02:38:15;;;;;;;111.95;102.50;;;;;;;-1.03;100.00;101288.56;4996689;28;20050;-79
2022/03/07 02:40:46;;;;;;;117.03;107.13;;;;;;;-1.01;100.00;101296.25;4994483;28;20082;-79
2022/03/07 02:43:13;;;;;;;99.50;91.10;;;;;;;-1.02;100.00;101294.59;4996194;28;20057;-82
2022/03/07 02:45:41;;;;;;;96.93;89.00;;;;;;;-1.05;100.00;101293.06;4995034;28;20050;-79
2022/03/07 02:48:07;;;;;;;90.43;83.43;;;;;;;-1.13;100.00;101287.56;4996562;28;20454;-83
2022/03/07 02:50:34;;;;;;;98.72;90.20;;;;;;;-1.06;100.00;101274.91;4996259;28;20054;-83
2022/03/07 02:53:01;;;;;;;89.32;82.05;;;;;;;-1.13;100.00;101284.16;4996024;28;20054;-79
2022/03/07 02:55:28;;;;;;;97.68;89.22;;;;;;;-1.15;100.00;101284.25;4995618;28;20112;-83
2022/03/07 02:57:56;;;;;;;88.63;82.13;;;;;;;-1.08;100.00;101279.41;4995943;28;20471;-80
2022/03/07 03:02:54;;;;;;;85.53;79.00;;;;;;;-1.11;100.00;101277.88;5002130;28;20058;-79
2022/03/07 03:05:21;;;;;;;86.57;79.90;;;;;;;-1.17;100.00;101278.34;5001531;28;20541;-79
2022/03/07 03:07:48;;;;;;;96.45;89.25;;;;;;;-1.13;100.00;101279.75;5005685;28;20379;-80
2022/03/07 03:10:15;;;;;;;92.95;86.20;;;;;;;-0.94;100.00;101284.41;5007362;28;20107;-79
2022/03/07 03:12:42;;;;;;;101.28;93.50;;;;;;;-1.11;100.00;101280.47;5005865;28;20491;-84
2022/03/07 03:15:11;;;;;;;95.70;88.25;;;;;;;-1.17;100.00;101275.72;5010439;28;20457;-82
2022/03/07 03:17:40;;;;;;;97.35;89.78;;;;;;;-1.03;100.00;101283.34;5009040;28;20050;-79
2022/03/07 03:20:08;;;;;;;109.18;100.07;;;;;;;-1.09;100.00;101272.53;4997430;28;20042;-79
2022/03/07 03:22:35;;;;;;;95.05;87.68;;;;;;;-1.11;100.00;101285.69;5006796;28;20116;-82
2022/03/07 03:25:02;;;;;;;81.55;74.80;;;;;;;-1.13;100.00;101278.94;4998490;28;20418;-83
2022/03/07 03:27:29;;;;;;;78.03;71.20;;;;;;;-1.16;100.00;101280.81;5000886;28;20568;-79
2022/03/07 03:29:56;;;;;;;91.40;83.68;;;;;;;-1.18;100.00;101274.91;5012435;28;20485;-82
2022/03/07 03:32:25;;;;;;;92.68;85.35;;;;;;;-1.10;100.00;101278.69;5010768;28;20120;-80
2022/03/07 03:34:51;;;;;;;110.60;101.70;;;;;;;-1.11;100.00;101275.25;5003983;28;20462;-83
2022/03/07 03:37:18;;;;;;;99.97;91.38;;;;;;;-1.14;100.00;101277.28;5007953;28;20046;-79
2022/03/07 03:39:45;;;;;;;91.20;84.22;;;;;;;-1.25;100.00;101270.25;5006251;28;20061;-83
2022/03/07 03:42:12;;;;;;;102.28;94.35;;;;;;;-1.12;100.00;101263.19;5001197;28;20050;-83
2022/03/07 03:44:39;;;;;;;113.38;104.75;;;;;;;-1.13;100.00;101269.31;5013024;28;20054;-79
2022/03/07 03:47:05;;;;;;;104.38;95.85;;;;;;;-1.11;100.00;101264.84;5011849;28;20115;-83
2022/03/07 03:49:34;;;;;;;91.68;84.63;;;;;;;-1.26;100.00;101266.81;5012125;28;20049;-80
2022/03/07 03:52:00;;;;;;;91.18;84.15;;;;;;;-1.24;100.00;101264.09;5005156;28;20470;-80
2022/03/07 03:54:27;;;;;;;88.88;81.72;;;;;;;-1.23;100.00;101269.19;5003931;28;20054;-79
2022/03/07 03:56:54;;;;;;;99.97;91.43;;;;;;;-1.16;100.00;101280.00;5004328;28;20089;-83
2022/03/07 03:59:21;;;;;;;82.82;76.25;;;;;;;-1.18;100.00;101280.13;4999632;28;20525;-80
2022/03/07 04:01:47;;;;;;;104.35;95.60;;;;;;;-1.09;100.00;101275.13;5010383;28;20576;-80
2022/03/07 04:04:15;;;;;;;87.40;80.13;;;;;;;-1.12;100.00;101272.75;5003984;28;20057;-79
2022/03/07 04:06:43;;;;;;;99.03;91.18;;;;;;;-1.10;100.00;101278.69;5004290;28;20113;-80
2022/03/07 04:09:18;;;;;;;98.60;90.63;;;;;;;-1.14;100.00;101266.84;5004163;28;20074;-83
2022/03/07 04:11:45;;;;;;;72.10;66.10;;;;;;;-1.23;100.00;101261.38;5004564;28;20474;-81
2022/03/07 04:14:13;;;;;;;75.43;69.63;;;;;;;-1.13;100.00;101269.31;5008795;28;20137;-82
2022/03/07 04:16:40;;;;;;;93.05;85.85;;;;;;;-1.14;100.00;101267.69;5007126;28;20104;-83
2022/03/07 04:19:08;;;;;;;99.90;91.35;;;;;;;-1.20;100.00;101271.56;5005417;28;20120;-80
2022/03/07 04:21:35;;;;;;;100.55;91.00;;;;;;;-1.29;100.00;101261.84;5006067;28;20050;-79
2022/03/07 04:24:04;;;;;;;94.40;85.97;;;;;;;-1.30;100.00;101265.41;5003722;28;20062;-82
2022/03/07 04:26:30;;;;;;;101.63;91.80;;;;;;;-1.27;100.00;101261.72;5002483;28;20104;-81
2022/03/07 04:28:57;;;;;;;171.60;123.03;;;;;;;-1.32;100.00;101267.28;5002539;28;20144;-83
2022/03/07 04:31:24;;;;;;;114.15;103.25;;;;;;;-1.11;100.00;101266.63;5005228;28;20054;-80
2022/03/07 04:33:51;;;;;;;99.70;89.60;;;;;;;-1.16;100.00;101256.53;5003168;28;20042;-79
2022/03/07 04:36:18;;;;;;;96.78;87.30;;;;;;;-1.44;100.00;101269.03;5000704;28;20462;-83
2022/03/07 04:38:45;;;;;;;73.82;67.53;;;;;;;-1.52;100.00;101271.38;5004389;28;20073;-79
2022/03/07 04:41:15;;;;;;;75.72;69.53;;;;;;;-1.57;100.00;101268.31;5001659;28;20050;-79
2022/03/07 04:43:41;;;;;;;79.68;73.40;;;;;;;-1.60;100.00;101271.13;5004799;28;20127;-82
2022/03/07 04:46:09;;;;;;;84.72;77.22;;;;;;;-1.17;100.00;101275.72;5008032;28;20112;-80
2022/03/07 04:48:36;;;;;;;126.95;114.88;;;;;;;-1.20;100.00;101271.56;5003863;28;20054;-80
2022/03/07 04:51:03;;;;;;;138.30;124.45;;;;;;;-1.11;100.00;101249.19;5010977;28;20109;-81
2022/03/07 04:53:30;;;;;;;87.93;80.03;;;;;;;-1.11;100.00;101254.41;5002298;28;20046;-82
2022/03/07 04:55:57;;;;;;;98.68;89.72;;;;;;;-1.14;100.00;101259.03;5002209;28;20465;-82
2022/03/07 04:58:26;;;;;;;99.93;88.63;;;;;;;-1.12;100.00;101267.53;5005628;28;20046;-80
2022/03/07 05:00:54;;;;;;;107.43;97.38;;;;;;;-1.19;100.00;101267.19;5009234;28;20054;-78
2022/03/07 05:03:20;;;;;;;86.30;78.85;;;;;;;-1.12;100.00;101262.34;5003967;28;20050;-81
2022/03/07 05:05:47;;;;;;;101.28;92.28;;;;;;;-1.13;100.00;101268.50;5001435;28;20523;-80
2022/03/07 05:08:14;;;;;;;92.95;84.70;;;;;;;-1.22;100.00;101263.03;5005699;28;20043;-79
2022/03/07 05:10:41;;;;;;;114.18;103.60;;;;;;;-1.21;100.00;101258.66;5008288;28;20120;-82
2022/03/07 05:13:08;;;;;;;95.90;87.55;;;;;;;-1.14;100.00;101253.81;5003805;28;20493;-82
2022/03/07 05:15:36;;;;;;;106.72;96.60;;;;;;;-1.09;100.00;101254.28;5009250;28;20054;-79
2022/03/07 05:18:03;;;;;;;112.22;101.25;;;;;;;-1.19;100.00;101257.59;5013330;28;20050;-83
2022/03/07 05:20:30;;;;;;;101.13;91.35;;;;;;;-1.27;100.00;101257.34;5013185;28;20116;-80
2022/03/07 05:22:57;;;;;;;114.82;103.05;;;;;;;-1.13;100.00;101252.88;5011592;28;20061;-80
2022/03/07 05:25:24;;;;;;;84.20;76.35;;;;;;;-1.18;100.00;101256.66;5008431;28;20054;-83
2022/03/07 05:27:51;;;;;;;101.30;91.15;;;;;;;-1.13;100.00;101252.88;5013478;28;20042;-80
2022/03/07 05:30:22;;;;;;;90.18;81.07;;;;;;;-0.98;100.00;101249.06;5013414;28;20047;-82
2022/03/07 05:32:53;;;;;;;91.03;82.10;;;;;;;-1.07;100.00;101252.38;5013155;28;20054;-82
2022/03/07 05:35:21;;;;;;;96.00;86.78;;;;;;;-1.07;100.00;101253.22;5007706;28;20056;-80
2022/03/07 05:37:48;;;;;;;108.13;97.90;;;;;;;-0.99;100.00;101255.25;5006863;28;20053;-79
2022/03/07 05:40:16;;;;;;;105.72;95.07;;;;;;;-1.00;100.00;101246.59;5012883;28;20437;-81
2022/03/07 05:42:43;;;;;;;140.88;126.25;;;;;;;-1.05;100.00;101253.94;5008585;28;20057;-80
2022/03/07 05:45:11;;;;;;;102.35;92.85;;;;;;;-1.04;100.00;101260.81;5007460;28;20105;-80
2022/03/07 05:47:39;;;;;;;126.97;113.47;;;;;;;-0.95;100.00;101254.06;5009463;28;20050;-82
2022/03/07 05:50:08;;;;;;;103.05;92.82;;;;;;;-0.91;100.00;101255.47;5011975;28;20141;-83
2022/03/07 05:52:35;;;;;;;84.25;76.63;;;;;;;-0.63;100.00;101254.19;5011234;28;20421;-79
2022/03/07 05:55:02;;;;;;;173.70;147.02;;;;;;;-0.74;100.00;101252.41;5010587;28;20042;-80
2022/03/07 05:57:29;;;;;;;150.10;130.30;;;;;;;-0.66;100.00;101243.16;5013864;28;20042;-79
2022/03/07 05:59:56;;;;;;;138.10;123.18;;;;;;;-0.65;100.00;101250.84;5007498;28;20054;-79
2022/03/07 06:02:23;;;;;;;144.20;129.73;;;;;;;-0.70;100.00;101250.38;5011263;28;20140;-80
2022/03/07 06:04:49;;;;;;;151.48;135.20;;;;;;;-0.64;100.00;101239.44;5009969;28;20104;-83
2022/03/07 06:07:17;;;;;;;184.07;164.27;;;;;;;-0.63;100.00;101242.91;5010496;28;20046;-82
2022/03/07 06:09:44;;;;;;;207.93;182.70;;;;;;;-0.71;100.00;101243.50;5011707;28;20471;-83
2022/03/07 06:12:11;;;;;;;114.50;102.63;;;;;;;-0.60;100.00;101238.28;5011443;28;20061;-81
2022/03/07 06:14:38;;;;;;;106.53;96.15;;;;;;;-0.60;100.00;101237.47;5007484;28;20525;-82
2022/03/07 06:17:05;;;;;;;108.03;96.60;;;;;;;-0.45;100.00;101241.47;5011086;28;20054;-83
2022/03/07 06:19:34;;;;;;;156.27;139.23;;;;;;;-0.57;100.00;101245.88;5011254;28;20137;-81
2022/03/07 06:22:01;;;;;;;86.93;78.57;;;;;;;-0.62;100.00;101245.38;5008553;28;20568;-83
2022/03/07 06:24:29;;;;;;;116.32;104.40;;;;;;;-0.30;100.00;101244.66;5009137;28;20046;-80
2022/03/07 06:26:57;;;;;;;83.88;75.90;;;;;;;-0.53;100.00;101242.06;5010033;28;20469;-79
2022/03/07 06:29:24;;;;;;;98.25;88.25;;;;;;;-0.39;100.00;101242.72;5010616;28;20201;-84
2022/03/07 06:31:51;;;;;;;140.30;122.22;;;;;;;-0.20;100.00;101236.91;5010029;28;20550;-80
2022/03/07 06:34:18;;;;;;;125.75;112.45;;;;;;;-0.24;100.00;101247.59;5010559;28;20046;-79
2022/03/07 06:36:45;;;;;;;112.35;100.47;;;;;;;-0.26;100.00;101240.81;5010865;28;20050;-80
2022/03/07 06:39:12;;;;;;;105.10;93.72;;;;;;;-0.21;100.00;101246.50;5009532;28;20121;-84
2022/03/07 06:41:40;;;;;;;86.30;77.10;;;;;;;-0.32;100.00;101249.16;5009016;28;20545;-81
2022/03/07 06:44:07;;;;;;;134.20;119.40;;;;;;;0.01;100.00;101247.41;5007431;28;20047;-80
2022/03/07 06:46:34;;;;;;;137.38;122.85;;;;;;;-0.26;100.00;101243.44;5008577;28;20045;-81
2022/03/07 06:49:01;;;;;;;135.82;121.43;;;;;;;-0.11;100.00;101250.03;5013708;28;20049;-80
2022/03/07 06:51:29;;;;;;;122.95;110.05;;;;;;;-0.15;100.00;101250.38;5015613;28;20548;-79
2022/03/07 06:54:05;;;;;;;129.68;116.18;;;;;;;-0.03;100.00;101250.25;5012988;28;20060;-79
2022/03/07 06:56:47;;;;;;;112.75;100.45;;;;;;;0.07;100.00;101246.91;5005258;28;20042;-80
2022/03/07 06:59:15;;;;;;;108.13;93.97;;;;;;;0.11;100.00;101243.91;5001165;28;20113;-80
2022/03/07 07:01:42;;;;;;;98.68;88.32;;;;;;;0.12;100.00;101249.94;5008025;28;20486;-82
2022/03/07 07:04:15;;;;;;;86.90;77.97;;;;;;;0.12;100.00;101248.19;5012049;28;20123;-79
2022/03/07 07:06:51;;;;;;;111.00;99.95;;;;;;;0.02;100.00;101247.25;5007686;28;20109;-78
2022/03/07 07:09:18;;;;;;;96.15;86.03;;;;;;;0.25;100.00;101247.19;5008711;28;20062;-79
2022/03/07 07:11:47;;;;;;;107.93;96.97;;;;;;;0.05;100.00;101249.63;5007027;28;20371;-80
2022/03/07 07:14:15;;;;;;;107.72;94.88;;;;;;;0.30;100.00;101256.28;5015446;28;20053;-84
2022/03/07 07:16:43;;;;;;;105.45;94.63;;;;;;;0.05;100.00;101254.84;5014898;28;20502;-80
2022/03/07 07:19:11;;;;;;;118.60;106.13;;;;;;;3.79;100.00;101252.22;5013903;28;20057;-80
2022/03/07 07:21:40;;;;;;;111.90;102.40;;;;;;;0.48;100.00;101250.50;5010420;28;20108;-79
2022/03/07 07:24:09;;;;;;;109.10;98.10;;;;;;;0.18;100.00;101249.44;5007386;28;20077;-79
2022/03/07 07:26:36;;;;;;;96.75;87.30;;;;;;;-0.06;100.00;101252.25;5009466;28;20050;-81
2022/03/07 07:29:06;;;;;;;100.63;90.55;;;;;;;-0.05;100.00;101251.34;5002823;28;20434;-78
2022/03/07 07:31:32;;;;;;;93.40;83.80;;;;;;;0.19;100.00;101254.56;5001191;28;20074;-79
2022/03/07 07:33:59;;;;;;;100.25;90.57;;;;;;;0.12;100.00;101249.94;5007754;28;20049;-82
2022/03/07 07:36:26;;;;;;;99.03;87.75;;;;;;;-0.05;100.00;101253.94;5004794;28;20050;-80
2022/03/07 07:38:52;;;;;;;104.22;93.07;;;;;;;0.03;100.00;101255.91;5004943;28;20449;-82
2022/03/07 07:41:19;;;;;;;109.97;98.63;;;;;;;0.06;100.00;101247.84;5002338;28;20046;-78
2022/03/07 07:43:49;;;;;;;119.63;107.57;;;;;;;0.25;100.00;101253.22;5004194;28;20077;-81
2022/03/07 07:46:18;;;;;;;113.97;102.32;;;;;;;0.22;100.00;101250.88;4999963;28;20055;-80
2022/03/07 07:48:45;;;;;;;111.72;100.65;;;;;;;0.09;100.00;101247.59;5004851;28;20109;-81
2022/03/07 07:51:13;;;;;;;106.20;95.60;;;;;;;0.14;100.00;101248.88;5003672;28;20046;-81
2022/03/07 07:53:40;;;;;;;101.88;92.32;;;;;;;0.00;100.00;101251.78;5007406;28;20049;-80
2022/03/07 07:56:06;;;;;;;105.35;94.55;;;;;;;0.16;100.00;101248.75;5002383;28;20467;-81
2022/03/07 07:58:33;;;;;;;112.22;100.95;;;;;;;0.03;100.00;101253.31;5003668;28;20463;-79
2022/03/07 08:01:00;;;;;;;106.05;94.80;;;;;;;0.07;100.00;101247.72;4999471;28;20105;-79
2022/03/07 08:03:28;;;;;;;96.22;86.30;;;;;;;-0.06;100.00;101250.50;5004633;28;20054;-79
2022/03/07 08:05:55;;;;;;;96.32;86.53;;;;;;;-0.04;100.00;101247.75;5005362;28;20046;-81
2022/03/07 08:08:22;;;;;;;102.20;92.13;;;;;;;-0.07;100.00;101253.22;5005866;28;20070;-79
2022/03/07 08:10:49;;;;;;;126.72;113.47;;;;;;;0.25;100.00;101249.81;5003950;28;20461;-79
2022/03/07 08:13:16;;;;;;;130.10;115.80;;;;;;;-0.03;100.00;101245.03;5004172;28;20120;-80
2022/03/07 08:15:42;;;;;;;122.88;106.88;;;;;;;0.14;100.00;101248.88;5000246;28;20082;-81
2022/03/07 08:18:09;;;;;;;116.28;101.63;;;;;;;0.15;100.00;101247.94;5006263;28;20449;-81
2022/03/07 08:20:38;;;;;;;132.20;117.93;;;;;;;0.38;100.00;101250.44;5006253;28;20120;-79
2022/03/07 08:23:05;;;;;;;114.57;99.32;;;;;;;0.02;100.00;101241.22;5005004;28;20065;-81
2022/03/07 08:25:33;;;;;;;150.27;133.82;;;;;;;0.36;100.00;101242.72;5004911;28;20051;-79
2022/03/07 08:28:00;;;;;;;121.45;109.30;;;;;;;0.26;100.00;101244.44;5005839;28;20141;-80
2022/03/07 08:30:28;;;;;;;151.02;135.80;;;;;;;0.36;100.00;101240.09;4997252;28;20394;-81
2022/03/07 08:32:55;;;;;;;112.25;100.65;;;;;;;0.53;100.00;101248.34;5005894;28;20050;-81
2022/03/07 08:35:22;;;;;;;114.10;99.82;;;;;;;0.43;100.00;101248.28;5004512;28;20054;-80
2022/03/07 08:37:52;;;;;;;120.93;108.93;;;;;;;0.54;100.00;101244.75;5004821;28;20506;-81
2022/03/07 08:40:21;;;;;;;127.63;115.07;;;;;;;0.45;100.00;101247.19;5005145;28;20525;-79
2022/03/07 08:42:49;;;;;;;135.23;121.18;;;;;;;0.52;100.00;101244.91;5004000;28;20054;-79
2022/03/07 08:45:16;;;;;;;120.00;107.68;;;;;;;0.55;100.00;101247.25;5012576;28;20467;-79
2022/03/07 08:47:43;;;;;;;113.65;102.40;;;;;;;0.53;100.00;101232.66;5004221;28;20565;-81
2022/03/07 08:50:11;;;;;;;101.95;91.75;;;;;;;0.45;100.00;101231.53;5004507;28;20462;-80
2022/03/07 08:52:40;;;;;;;97.97;88.30;;;;;;;0.45;100.00;101244.59;5005481;28;20054;-82
2022/03/07 08:55:09;;;;;;;97.03;87.57;;;;;;;0.15;100.00;101239.25;5002735;28;20054;-82
2022/03/07 08:57:36;;;;;;;96.30;86.53;;;;;;;0.54;100.00;101242.16;5001977;28;20058;-79
2022/03/07 09:00:05;;;;;;;96.03;86.45;;;;;;;0.68;100.00;101236.59;5012499;28;20466;-79
2022/03/07 09:02:31;;;;;;;94.97;86.38;;;;;;;0.63;100.00;101241.38;5004004;28;20058;-78
2022/03/07 09:04:59;;;;;;;94.25;85.35;;;;;;;0.57;100.00;101231.44;5004916;28;20497;-81
2022/03/07 09:07:28;;;;;;;94.25;85.25;;;;;;;0.59;100.00;101234.75;5002399;28;20046;-79
2022/03/07 09:09:55;;;;;;;108.72;98.13;;;;;;;0.69;100.00;101228.59;5007976;28;20116;-80
2022/03/07 09:12:27;;;;;;;113.18;101.53;;;;;;;0.99;100.00;101236.63;5003713;28;20457;-79
2022/03/07 09:14:55;;;;;;;115.75;104.53;;;;;;;1.09;100.00;101235.72;4996483;28;20058;-79
2022/03/07 09:17:21;;;;;;;106.70;95.88;;;;;;;0.83;100.00;101242.31;5002726;28;20461;-80
2022/03/07 09:19:48;;;;;;;110.25;98.10;;;;;;;1.02;100.00;101238.97;5005443;28;20136;-81
2022/03/07 09:22:15;;;;;;;103.47;92.68;;;;;;;1.25;100.00;101232.59;5008293;28;20053;-83
2022/03/07 09:24:42;;;;;;;110.85;99.22;;;;;;;1.07;100.00;101231.56;5004722;28;20445;-79
2022/03/07 09:27:09;;;;;;;97.13;87.88;;;;;;;0.90;100.00;101228.59;4999981;28;20054;-81
2022/03/07 09:29:37;;;;;;;99.97;90.45;;;;;;;0.74;100.00;101225.63;5011297;28;20050;-78
2022/03/07 09:32:05;;;;;;;100.57;90.97;;;;;;;0.98;100.00;101225.34;5001890;28;20046;-81
2022/03/07 09:34:32;;;;;;;99.90;90.65;;;;;;;0.75;100.00;101231.69;5001549;28;20147;-82
2022/03/07 09:36:59;;;;;;;106.18;95.97;;;;;;;0.83;100.00;101231.88;5002388;28;20112;-79
2022/03/07 09:39:26;;;;;;;98.55;87.75;;;;;;;0.78;100.00;101232.25;5004142;28;20390;-81
2022/03/07 09:41:53;;;;;;;93.40;82.38;;;;;;;0.98;100.00;101225.34;5005029;28;20116;-79
2022/03/07 09:44:19;;;;;;;98.13;86.50;;;;;;;1.06;100.00;101235.97;4998926;28;20395;-81
2022/03/07 09:46:50;;;;;;;96.85;87.05;;;;;;;0.97;100.00;101230.69;4996599;28;20058;-81
2022/03/07 09:49:18;;;;;;;103.15;93.13;;;;;;;1.34;100.00;101234.41;4999459;28;20129;-82
2022/03/07 09:51:45;;;;;;;104.68;94.68;;;;;;;1.17;100.00;101234.22;5003415;28;20470;-80
2022/03/07 09:54:12;;;;;;;97.03;87.53;;;;;;;1.22;100.00;101230.25;5004667;28;20101;-79
2022/03/07 09:56:39;;;;;;;91.10;82.10;;;;;;;1.11;100.00;101233.78;5003622;28;20058;-81
2022/03/07 09:59:07;;;;;;;93.45;84.28;;;;;;;1.03;100.00;101230.16;5007194;28;20046;-80
2022/03/07 10:01:35;;;;;;;91.15;82.45;;;;;;;1.61;100.00;101235.59;5007667;28;20487;-82
2022/03/07 10:04:07;;;;;;;94.57;85.05;;;;;;;1.49;100.00;101236.66;5006748;28;20049;-79
2022/03/07 10:06:34;;;;;;;109.05;98.65;;;;;;;1.71;100.00;101235.59;5005121;28;20046;-80
2022/03/07 10:09:01;;;;;;;106.32;95.88;;;;;;;1.38;100.00;101229.75;5006260;28;20478;-80
2022/03/07 10:11:29;;;;;;;110.63;99.90;;;;;;;1.33;100.00;101231.91;5007562;28;20506;-80
2022/03/07 10:13:58;;;;;;;109.65;99.25;;;;;;;1.76;100.00;101246.50;5005516;28;20050;-79
2022/03/07 10:16:35;;;;;;;102.07;92.43;;;;;;;1.26;100.00;101230.81;5008056;28;20061;-79
2022/03/07 10:19:10;;;;;;;106.22;95.85;;;;;;;1.75;100.00;101235.19;5004082;28;20113;-79
2022/03/07 10:21:37;;;;;;;102.03;92.22;;;;;;;1.52;100.00;101229.38;5006595;28;20481;-80
2022/03/07 10:24:05;;;;;;;102.88;93.13;;;;;;;1.46;100.00;101229.91;5006605;28;20263;-79
2022/03/07 10:26:35;;;;;;;91.50;82.80;;;;;;;1.47;100.00;101221.09;5006380;28;20108;-81
2022/03/07 10:29:05;;;;;;;91.72;82.82;;;;;;;1.61;100.00;101217.25;5004393;28;20129;-79
2022/03/07 10:31:32;;;;;;;90.55;81.78;;;;;;;1.44;100.00;101217.91;5006003;28;20108;-81
2022/03/07 10:34:04;;;;;;;98.03;88.82;;;;;;;1.92;100.00;101217.97;5004488;28;20046;-79
2022/03/07 10:36:35;;;;;;;100.95;91.70;;;;;;;1.79;100.00;101220.06;5006328;28;20050;-79
2022/03/07 10:39:04;;;;;;;97.05;88.05;;;;;;;1.67;100.00;101227.19;5008108;28;20050;-80
2022/03/07 10:41:38;;;;;;;85.85;77.55;;;;;;;1.76;100.00;101213.28;5006244;28;20049;-80
2022/03/07 10:44:06;;;;;;;91.03;82.43;;;;;;;1.32;100.00;101211.94;4996925;28;20120;-80
2022/03/07 10:46:33;;;;;;;96.65;87.60;;;;;;;1.53;100.00;101209.25;5005670;28;20049;-80
2022/03/07 10:49:00;;;;;;;99.88;90.30;;;;;;;1.96;100.00;101208.03;5004116;28;20124;-80
2022/03/07 10:51:27;;;;;;;101.05;91.70;;;;;;;1.87;100.00;101209.69;5006464;28;20046;-78
2022/03/07 10:53:55;;;;;;;91.65;83.78;;;;;;;1.62;100.00;101208.44;5004851;28;20046;-80
2022/03/07 10:56:24;;;;;;;94.72;85.90;;;;;;;1.84;100.00;101205.56;5008760;28;20108;-82
2022/03/07 10:58:53;;;;;;;101.55;92.57;;;;;;;2.31;100.00;101197.00;5007823;28;20042;-82
2022/03/07 11:01:30;;;;;;;97.70;88.72;;;;;;;2.01;100.00;101193.56;5009746;28;20063;-82